sensor_id;sensor_type;location;lat;lon;timestamp;temperature;humidity
22112;DHT22;11222;50.872;4.312;2023-04-16T00:01:08;9.00;99.90
22112;DHT22;11222;50.872;4.312;2023-04-16T00:03:34;9.00;99.90
22112;DHT22;11222;50.872;4.312;2023-04-16T00:06:01;9.10;99.90
22112;DHT22;11222;50.872;4.312;2023-04-16T00:08:27;9.10;99.90
22112;DHT22;11222;50.872;4.312;2023-04-16T00:10:52;9.00;99.90
22112;DHT22;11222;50.872;4.312;2023-04-16T00:13:18;9.10;99.90
22112;DHT22;11222;50.872;4.312;2023-04-16T00:15:44;9.20;99.90
22112;DHT22;11222;50.872;4.312;2023-04-16T00:18:10;9.10;99.90
22112;DHT22;11222;50.872;4.312;2023-04-16T00:20:35;9.10;99.90
22112;DHT22;11222;50.872;4.312;2023-04-16T00:23:01;9.10;99.90
22112;DHT22;11222;50.872;4.312;2023-04-16T00:25:27;9.00;99.90
22112;DHT22;11222;50.872;4.312;2023-04-16T00:27:52;9.00;99.90
22112;DHT22;11222;50.872;4.312;2023-04-16T00:30:18;9.10;99.90
22112;DHT22;11222;50.872;4.312;2023-04-16T00:32:44;9.10;99.90
22112;DHT22;11222;50.872;4.312;2023-04-16T00:35:09;9.10;99.90
22112;DHT22;11222;50.872;4.312;2023-04-16T00:37:35;9.00;99.90
22112;DHT22;11222;50.872;4.312;2023-04-16T00:40:01;9.10;99.90
22112;DHT22;11222;50.872;4.312;2023-04-16T00:42:26;9.00;99.90
22112;DHT22;11222;50.872;4.312;2023-04-16T00:44:52;9.00;99.90
22112;DHT22;11222;50.872;4.312;2023-04-16T00:47:19;9.00;99.90
22112;DHT22;11222;50.872;4.312;2023-04-16T00:49:45;8.90;99.90
22112;DHT22;11222;50.872;4.312;2023-04-16T00:52:11;9.00;99.90
22112;DHT22;11222;50.872;4.312;2023-04-16T00:54:38;9.10;99.90
22112;DHT22;11222;50.872;4.312;2023-04-16T00:57:03;9.00;99.90
22112;DHT22;11222;50.872;4.312;2023-04-16T00:59:30;9.00;99.90
22112;DHT22;11222;50.872;4.312;2023-04-16T01:01:56;9.10;99.90
22112;DHT22;11222;50.872;4.312;2023-04-16T01:04:22;9.20;99.90
22112;DHT22;11222;50.872;4.312;2023-04-16T01:06:48;9.20;99.90
22112;DHT22;11222;50.872;4.312;2023-04-16T01:09:13;9.30;99.90
22112;DHT22;11222;50.872;4.312;2023-04-16T01:11:39;9.30;99.90
22112;DHT22;11222;50.872;4.312;2023-04-16T01:14:05;9.30;99.90
22112;DHT22;11222;50.872;4.312;2023-04-16T01:16:32;9.20;99.90
22112;DHT22;11222;50.872;4.312;2023-04-16T01:18:57;9.20;99.90
22112;DHT22;11222;50.872;4.312;2023-04-16T01:21:23;9.30;99.90
22112;DHT22;11222;50.872;4.312;2023-04-16T01:23:49;9.30;99.90
22112;DHT22;11222;50.872;4.312;2023-04-16T01:26:14;9.30;99.90
22112;DHT22;11222;50.872;4.312;2023-04-16T01:28:40;9.20;99.90
22112;DHT22;11222;50.872;4.312;2023-04-16T01:31:06;9.20;99.90
22112;DHT22;11222;50.872;4.312;2023-04-16T01:33:32;9.20;99.90
22112;DHT22;11222;50.872;4.312;2023-04-16T01:35:57;9.30;99.90
22112;DHT22;11222;50.872;4.312;2023-04-16T01:38:23;9.20;99.90
22112;DHT22;11222;50.872;4.312;2023-04-16T01:40:48;9.20;99.90
22112;DHT22;11222;50.872;4.312;2023-04-16T01:43:14;9.20;99.90
22112;DHT22;11222;50.872;4.312;2023-04-16T01:45:41;9.20;99.90
22112;DHT22;11222;50.872;4.312;2023-04-16T01:48:07;9.00;99.90
22112;DHT22;11222;50.872;4.312;2023-04-16T01:50:33;9.00;99.90
22112;DHT22;11222;50.872;4.312;2023-04-16T01:52:59;9.00;99.90
22112;DHT22;11222;50.872;4.312;2023-04-16T01:55:26;9.00;99.90
22112;DHT22;11222;50.872;4.312;2023-04-16T01:57:52;9.00;99.90
22112;DHT22;11222;50.872;4.312;2023-04-16T02:00:17;9.10;99.90
22112;DHT22;11222;50.872;4.312;2023-04-16T02:02:43;9.20;99.90
22112;DHT22;11222;50.872;4.312;2023-04-16T02:05:09;9.20;99.90
22112;DHT22;11222;50.872;4.312;2023-04-16T02:07:34;9.20;99.90
22112;DHT22;11222;50.872;4.312;2023-04-16T02:10:00;9.10;99.90
22112;DHT22;11222;50.872;4.312;2023-04-16T02:12:26;9.00;99.90
22112;DHT22;11222;50.872;4.312;2023-04-16T02:14:52;9.00;99.90
22112;DHT22;11222;50.872;4.312;2023-04-16T02:17:17;9.00;99.90
22112;DHT22;11222;50.872;4.312;2023-04-16T02:19:43;9.00;99.90
22112;DHT22;11222;50.872;4.312;2023-04-16T02:22:08;8.90;99.90
22112;DHT22;11222;50.872;4.312;2023-04-16T02:24:34;9.00;99.90
22112;DHT22;11222;50.872;4.312;2023-04-16T02:27:00;8.90;99.90
22112;DHT22;11222;50.872;4.312;2023-04-16T02:29:26;9.00;99.90
22112;DHT22;11222;50.872;4.312;2023-04-16T02:31:51;8.90;99.90
22112;DHT22;11222;50.872;4.312;2023-04-16T02:34:17;9.00;99.90
22112;DHT22;11222;50.872;4.312;2023-04-16T02:36:43;8.90;99.90
22112;DHT22;11222;50.872;4.312;2023-04-16T02:39:08;8.90;99.90
22112;DHT22;11222;50.872;4.312;2023-04-16T02:41:34;8.90;99.90
22112;DHT22;11222;50.872;4.312;2023-04-16T02:44:00;8.90;99.90
22112;DHT22;11222;50.872;4.312;2023-04-16T02:46:26;9.10;99.90
22112;DHT22;11222;50.872;4.312;2023-04-16T02:48:51;9.10;99.90
22112;DHT22;11222;50.872;4.312;2023-04-16T02:51:17;9.00;99.90
22112;DHT22;11222;50.872;4.312;2023-04-16T02:53:43;9.10;99.90
22112;DHT22;11222;50.872;4.312;2023-04-16T02:56:11;9.20;99.90
22112;DHT22;11222;50.872;4.312;2023-04-16T02:58:37;9.20;99.90
22112;DHT22;11222;50.872;4.312;2023-04-16T03:01:02;9.20;99.90
22112;DHT22;11222;50.872;4.312;2023-04-16T03:03:28;9.30;99.90
22112;DHT22;11222;50.872;4.312;2023-04-16T03:05:54;9.30;99.90
22112;DHT22;11222;50.872;4.312;2023-04-16T03:08:20;9.40;99.90
22112;DHT22;11222;50.872;4.312;2023-04-16T03:10:45;9.40;99.90
22112;DHT22;11222;50.872;4.312;2023-04-16T03:13:11;9.30;99.90
22112;DHT22;11222;50.872;4.312;2023-04-16T03:15:37;9.40;99.90
22112;DHT22;11222;50.872;4.312;2023-04-16T03:18:02;9.30;99.90
22112;DHT22;11222;50.872;4.312;2023-04-16T03:20:28;9.30;99.90
22112;DHT22;11222;50.872;4.312;2023-04-16T03:22:54;9.30;99.90
22112;DHT22;11222;50.872;4.312;2023-04-16T03:25:20;9.20;99.90
22112;DHT22;11222;50.872;4.312;2023-04-16T03:27:45;9.20;99.90
22112;DHT22;11222;50.872;4.312;2023-04-16T03:30:12;9.00;99.90
22112;DHT22;11222;50.872;4.312;2023-04-16T03:32:38;9.00;99.90
22112;DHT22;11222;50.872;4.312;2023-04-16T03:35:04;9.10;99.90
22112;DHT22;11222;50.872;4.312;2023-04-16T03:37:31;9.00;99.90
22112;DHT22;11222;50.872;4.312;2023-04-16T03:39:57;9.00;99.90
22112;DHT22;11222;50.872;4.312;2023-04-16T03:42:22;8.90;99.90
22112;DHT22;11222;50.872;4.312;2023-04-16T03:44:48;9.00;99.90
22112;DHT22;11222;50.872;4.312;2023-04-16T03:47:14;9.00;99.90
22112;DHT22;11222;50.872;4.312;2023-04-16T03:49:39;9.00;99.90
22112;DHT22;11222;50.872;4.312;2023-04-16T03:52:05;8.90;99.90
22112;DHT22;11222;50.872;4.312;2023-04-16T03:54:31;8.80;99.90
22112;DHT22;11222;50.872;4.312;2023-04-16T03:56:56;8.70;99.90
22112;DHT22;11222;50.872;4.312;2023-04-16T03:59:22;8.80;99.90
22112;DHT22;11222;50.872;4.312;2023-04-16T04:01:48;8.80;99.90
22112;DHT22;11222;50.872;4.312;2023-04-16T04:04:13;8.90;99.90
22112;DHT22;11222;50.872;4.312;2023-04-16T04:06:39;8.90;99.90
22112;DHT22;11222;50.872;4.312;2023-04-16T04:09:05;8.90;99.90
22112;DHT22;11222;50.872;4.312;2023-04-16T04:11:31;8.90;99.90
22112;DHT22;11222;50.872;4.312;2023-04-16T04:13:57;8.90;99.90
22112;DHT22;11222;50.872;4.312;2023-04-16T04:16:23;8.90;99.90
22112;DHT22;11222;50.872;4.312;2023-04-16T04:18:48;8.90;99.90
22112;DHT22;11222;50.872;4.312;2023-04-16T04:21:14;8.90;99.90
22112;DHT22;11222;50.872;4.312;2023-04-16T04:23:40;8.90;99.90
22112;DHT22;11222;50.872;4.312;2023-04-16T04:26:07;8.90;99.90
22112;DHT22;11222;50.872;4.312;2023-04-16T04:28:33;8.90;99.90
22112;DHT22;11222;50.872;4.312;2023-04-16T04:30:59;9.00;99.90
22112;DHT22;11222;50.872;4.312;2023-04-16T04:33:25;9.00;99.90
22112;DHT22;11222;50.872;4.312;2023-04-16T04:35:52;9.00;99.90
22112;DHT22;11222;50.872;4.312;2023-04-16T04:38:18;9.00;99.90
22112;DHT22;11222;50.872;4.312;2023-04-16T04:40:46;9.00;99.90
22112;DHT22;11222;50.872;4.312;2023-04-16T04:43:12;9.00;99.90
22112;DHT22;11222;50.872;4.312;2023-04-16T04:45:38;9.00;99.90
22112;DHT22;11222;50.872;4.312;2023-04-16T04:48:04;9.00;99.90
22112;DHT22;11222;50.872;4.312;2023-04-16T04:50:30;8.90;99.90
22112;DHT22;11222;50.872;4.312;2023-04-16T04:52:56;8.90;99.90
22112;DHT22;11222;50.872;4.312;2023-04-16T04:55:21;8.90;99.90
22112;DHT22;11222;50.872;4.312;2023-04-16T04:57:48;8.90;99.90
22112;DHT22;11222;50.872;4.312;2023-04-16T05:00:14;9.00;99.90
22112;DHT22;11222;50.872;4.312;2023-04-16T05:02:40;9.00;99.90
22112;DHT22;11222;50.872;4.312;2023-04-16T05:05:05;9.00;99.90
22112;DHT22;11222;50.872;4.312;2023-04-16T05:07:31;9.00;99.90
22112;DHT22;11222;50.872;4.312;2023-04-16T05:09:57;8.90;99.90
22112;DHT22;11222;50.872;4.312;2023-04-16T05:12:23;8.90;99.90
22112;DHT22;11222;50.872;4.312;2023-04-16T05:14:48;9.00;99.90
22112;DHT22;11222;50.872;4.312;2023-04-16T05:17:14;8.90;99.90
22112;DHT22;11222;50.872;4.312;2023-04-16T05:19:40;8.80;99.90
22112;DHT22;11222;50.872;4.312;2023-04-16T05:22:05;8.80;99.90
22112;DHT22;11222;50.872;4.312;2023-04-16T05:24:31;8.80;99.90
22112;DHT22;11222;50.872;4.312;2023-04-16T05:26:56;8.80;99.90
22112;DHT22;11222;50.872;4.312;2023-04-16T05:29:22;8.80;99.90
22112;DHT22;11222;50.872;4.312;2023-04-16T05:31:48;8.90;99.90
22112;DHT22;11222;50.872;4.312;2023-04-16T05:34:14;8.90;99.90
22112;DHT22;11222;50.872;4.312;2023-04-16T05:36:39;9.00;99.90
22112;DHT22;11222;50.872;4.312;2023-04-16T05:39:05;9.00;99.90
22112;DHT22;11222;50.872;4.312;2023-04-16T05:41:32;9.00;99.90
22112;DHT22;11222;50.872;4.312;2023-04-16T05:43:58;9.10;99.90
22112;DHT22;11222;50.872;4.312;2023-04-16T05:46:24;9.20;99.90
22112;DHT22;11222;50.872;4.312;2023-04-16T05:48:50;9.10;99.90
22112;DHT22;11222;50.872;4.312;2023-04-16T05:51:16;9.10;99.90
22112;DHT22;11222;50.872;4.312;2023-04-16T05:53:41;9.10;99.90
22112;DHT22;11222;50.872;4.312;2023-04-16T05:56:07;9.00;99.90
22112;DHT22;11222;50.872;4.312;2023-04-16T05:58:33;8.90;99.90
22112;DHT22;11222;50.872;4.312;2023-04-16T06:00:59;9.00;99.90
22112;DHT22;11222;50.872;4.312;2023-04-16T06:03:26;8.90;99.90
22112;DHT22;11222;50.872;4.312;2023-04-16T06:05:52;8.90;99.90
22112;DHT22;11222;50.872;4.312;2023-04-16T06:08:18;8.90;99.90
22112;DHT22;11222;50.872;4.312;2023-04-16T06:10:47;9.10;99.90
22112;DHT22;11222;50.872;4.312;2023-04-16T06:13:13;9.00;99.90
22112;DHT22;11222;50.872;4.312;2023-04-16T06:15:39;9.10;99.90
22112;DHT22;11222;50.872;4.312;2023-04-16T06:18:04;9.20;99.90
22112;DHT22;11222;50.872;4.312;2023-04-16T06:20:30;9.20;99.90
22112;DHT22;11222;50.872;4.312;2023-04-16T06:22:56;9.30;99.90
22112;DHT22;11222;50.872;4.312;2023-04-16T06:25:22;9.30;99.90
22112;DHT22;11222;50.872;4.312;2023-04-16T06:27:47;9.30;99.90
22112;DHT22;11222;50.872;4.312;2023-04-16T06:30:14;9.30;99.90
22112;DHT22;11222;50.872;4.312;2023-04-16T06:32:41;9.40;99.90
22112;DHT22;11222;50.872;4.312;2023-04-16T06:35:08;9.40;99.90
22112;DHT22;11222;50.872;4.312;2023-04-16T06:37:33;9.40;99.90
22112;DHT22;11222;50.872;4.312;2023-04-16T06:39:59;9.30;99.90
22112;DHT22;11222;50.872;4.312;2023-04-16T06:42:26;9.30;99.90
22112;DHT22;11222;50.872;4.312;2023-04-16T06:44:52;9.20;99.90
22112;DHT22;11222;50.872;4.312;2023-04-16T06:47:17;9.20;99.90
22112;DHT22;11222;50.872;4.312;2023-04-16T06:49:43;9.20;99.90
22112;DHT22;11222;50.872;4.312;2023-04-16T06:52:09;9.00;99.90
22112;DHT22;11222;50.872;4.312;2023-04-16T06:54:35;8.90;99.90
22112;DHT22;11222;50.872;4.312;2023-04-16T06:57:01;8.90;99.90
22112;DHT22;11222;50.872;4.312;2023-04-16T06:59:26;8.90;99.90
22112;DHT22;11222;50.872;4.312;2023-04-16T07:01:52;9.00;99.90
22112;DHT22;11222;50.872;4.312;2023-04-16T07:04:18;9.00;99.90
22112;DHT22;11222;50.872;4.312;2023-04-16T07:06:44;9.00;99.90
22112;DHT22;11222;50.872;4.312;2023-04-16T07:09:09;9.10;99.90
22112;DHT22;11222;50.872;4.312;2023-04-16T07:11:35;9.20;99.90
22112;DHT22;11222;50.872;4.312;2023-04-16T07:14:01;9.10;99.90
22112;DHT22;11222;50.872;4.312;2023-04-16T07:16:26;9.10;99.90
22112;DHT22;11222;50.872;4.312;2023-04-16T07:18:52;9.10;99.90
22112;DHT22;11222;50.872;4.312;2023-04-16T07:21:17;9.20;99.90
22112;DHT22;11222;50.872;4.312;2023-04-16T07:23:44;9.20;99.90
22112;DHT22;11222;50.872;4.312;2023-04-16T07:26:09;9.30;99.90
22112;DHT22;11222;50.872;4.312;2023-04-16T07:28:36;9.40;99.90
22112;DHT22;11222;50.872;4.312;2023-04-16T07:31:02;9.40;99.90
22112;DHT22;11222;50.872;4.312;2023-04-16T07:33:27;9.50;99.90
22112;DHT22;11222;50.872;4.312;2023-04-16T07:35:53;9.50;99.90
22112;DHT22;11222;50.872;4.312;2023-04-16T07:38:19;9.40;99.90
22112;DHT22;11222;50.872;4.312;2023-04-16T07:40:45;9.50;99.90
22112;DHT22;11222;50.872;4.312;2023-04-16T07:43:12;9.50;99.90
22112;DHT22;11222;50.872;4.312;2023-04-16T07:45:38;9.50;99.90
22112;DHT22;11222;50.872;4.312;2023-04-16T07:48:03;9.40;99.90
22112;DHT22;11222;50.872;4.312;2023-04-16T07:50:38;9.60;99.90
22112;DHT22;11222;50.872;4.312;2023-04-16T07:53:06;9.50;99.90
22112;DHT22;11222;50.872;4.312;2023-04-16T07:55:32;9.50;99.90
22112;DHT22;11222;50.872;4.312;2023-04-16T07:57:57;9.60;99.90
22112;DHT22;11222;50.872;4.312;2023-04-16T08:00:23;9.50;99.90
22112;DHT22;11222;50.872;4.312;2023-04-16T08:02:48;9.60;99.90
22112;DHT22;11222;50.872;4.312;2023-04-16T08:05:14;9.70;99.90
22112;DHT22;11222;50.872;4.312;2023-04-16T08:07:40;9.70;99.90
22112;DHT22;11222;50.872;4.312;2023-04-16T08:10:06;9.50;99.90
22112;DHT22;11222;50.872;4.312;2023-04-16T08:12:32;9.50;99.90
22112;DHT22;11222;50.872;4.312;2023-04-16T08:14:58;9.50;99.90
22112;DHT22;11222;50.872;4.312;2023-04-16T08:17:24;9.60;99.90
22112;DHT22;11222;50.872;4.312;2023-04-16T08:19:49;9.60;99.90
22112;DHT22;11222;50.872;4.312;2023-04-16T08:22:15;9.70;99.90
22112;DHT22;11222;50.872;4.312;2023-04-16T08:24:41;9.70;99.90
22112;DHT22;11222;50.872;4.312;2023-04-16T08:27:07;9.60;99.90
22112;DHT22;11222;50.872;4.312;2023-04-16T08:29:33;9.60;99.90
22112;DHT22;11222;50.872;4.312;2023-04-16T08:31:59;9.70;99.90
22112;DHT22;11222;50.872;4.312;2023-04-16T08:34:25;9.70;99.90
22112;DHT22;11222;50.872;4.312;2023-04-16T08:36:50;9.50;99.90
22112;DHT22;11222;50.872;4.312;2023-04-16T08:39:16;9.60;99.90
22112;DHT22;11222;50.872;4.312;2023-04-16T08:41:44;9.50;99.90
22112;DHT22;11222;50.872;4.312;2023-04-16T08:44:19;9.40;99.90
22112;DHT22;11222;50.872;4.312;2023-04-16T08:46:46;9.50;99.90
22112;DHT22;11222;50.872;4.312;2023-04-16T08:49:15;9.60;99.90
22112;DHT22;11222;50.872;4.312;2023-04-16T08:51:49;9.50;99.90
22112;DHT22;11222;50.872;4.312;2023-04-16T08:57:05;9.60;99.90
22112;DHT22;11222;50.872;4.312;2023-04-16T08:59:31;9.50;99.90
22112;DHT22;11222;50.872;4.312;2023-04-16T09:01:57;9.40;99.90
22112;DHT22;11222;50.872;4.312;2023-04-16T09:04:27;9.40;99.90
22112;DHT22;11222;50.872;4.312;2023-04-16T09:06:55;9.50;99.90
22112;DHT22;11222;50.872;4.312;2023-04-16T09:09:25;9.50;99.90
22112;DHT22;11222;50.872;4.312;2023-04-16T09:11:52;9.40;99.90
22112;DHT22;11222;50.872;4.312;2023-04-16T09:14:19;9.50;99.90
22112;DHT22;11222;50.872;4.312;2023-04-16T09:16:45;9.60;99.90
22112;DHT22;11222;50.872;4.312;2023-04-16T09:19:14;9.50;99.90
22112;DHT22;11222;50.872;4.312;2023-04-16T09:21:41;9.60;99.90
22112;DHT22;11222;50.872;4.312;2023-04-16T09:24:08;9.70;99.90
22112;DHT22;11222;50.872;4.312;2023-04-16T09:26:35;9.70;99.90
22112;DHT22;11222;50.872;4.312;2023-04-16T09:29:01;9.50;99.90
22112;DHT22;11222;50.872;4.312;2023-04-16T09:31:27;9.60;99.90
22112;DHT22;11222;50.872;4.312;2023-04-16T09:34:07;9.50;99.90
22112;DHT22;11222;50.872;4.312;2023-04-16T09:36:33;9.40;99.90
22112;DHT22;11222;50.872;4.312;2023-04-16T09:39:00;9.60;99.90
22112;DHT22;11222;50.872;4.312;2023-04-16T09:41:31;9.70;99.90
22112;DHT22;11222;50.872;4.312;2023-04-16T09:43:58;9.70;99.90
22112;DHT22;11222;50.872;4.312;2023-04-16T09:46:30;9.90;99.90
22112;DHT22;11222;50.872;4.312;2023-04-16T09:49:07;9.90;99.90
22112;DHT22;11222;50.872;4.312;2023-04-16T09:51:39;9.90;99.90
22112;DHT22;11222;50.872;4.312;2023-04-16T09:54:05;9.90;99.90
22112;DHT22;11222;50.872;4.312;2023-04-16T09:56:31;10.00;99.90
22112;DHT22;11222;50.872;4.312;2023-04-16T09:58:59;10.00;99.90
22112;DHT22;11222;50.872;4.312;2023-04-16T10:01:25;9.90;99.90
22112;DHT22;11222;50.872;4.312;2023-04-16T10:03:53;9.90;99.90
22112;DHT22;11222;50.872;4.312;2023-04-16T10:06:21;9.80;99.90
22112;DHT22;11222;50.872;4.312;2023-04-16T10:08:52;9.90;99.90
22112;DHT22;11222;50.872;4.312;2023-04-16T10:11:19;9.90;99.90
22112;DHT22;11222;50.872;4.312;2023-04-16T10:13:45;9.70;99.90
22112;DHT22;11222;50.872;4.312;2023-04-16T10:16:11;9.70;99.90
22112;DHT22;11222;50.872;4.312;2023-04-16T10:18:42;9.60;99.90
22112;DHT22;11222;50.872;4.312;2023-04-16T10:21:08;9.60;99.90
22112;DHT22;11222;50.872;4.312;2023-04-16T10:23:38;9.70;99.90
22112;DHT22;11222;50.872;4.312;2023-04-16T10:26:05;9.60;99.90
22112;DHT22;11222;50.872;4.312;2023-04-16T10:28:31;9.60;99.90
22112;DHT22;11222;50.872;4.312;2023-04-16T10:31:01;9.70;99.90
22112;DHT22;11222;50.872;4.312;2023-04-16T10:33:30;9.80;99.90
22112;DHT22;11222;50.872;4.312;2023-04-16T10:36:10;9.80;99.90
22112;DHT22;11222;50.872;4.312;2023-04-16T10:38:56;10.00;99.90
22112;DHT22;11222;50.872;4.312;2023-04-16T10:41:22;10.10;99.90
22112;DHT22;11222;50.872;4.312;2023-04-16T10:43:50;10.10;99.90
22112;DHT22;11222;50.872;4.312;2023-04-16T10:46:18;10.00;99.90
22112;DHT22;11222;50.872;4.312;2023-04-16T10:48:44;10.00;99.90
22112;DHT22;11222;50.872;4.312;2023-04-16T10:53:48;10.00;99.90
22112;DHT22;11222;50.872;4.312;2023-04-16T10:56:21;10.20;99.90
22112;DHT22;11222;50.872;4.312;2023-04-16T10:58:46;10.30;99.90
22112;DHT22;11222;50.872;4.312;2023-04-16T11:01:13;10.30;99.90
22112;DHT22;11222;50.872;4.312;2023-04-16T11:03:43;10.20;99.90
22112;DHT22;11222;50.872;4.312;2023-04-16T11:06:14;10.10;99.90
22112;DHT22;11222;50.872;4.312;2023-04-16T11:08:41;10.00;99.90
22112;DHT22;11222;50.872;4.312;2023-04-16T11:11:08;10.00;99.90
22112;DHT22;11222;50.872;4.312;2023-04-16T11:13:35;10.10;99.90
22112;DHT22;11222;50.872;4.312;2023-04-16T11:16:03;10.20;99.90
22112;DHT22;11222;50.872;4.312;2023-04-16T11:18:28;10.20;99.90
22112;DHT22;11222;50.872;4.312;2023-04-16T11:20:54;10.30;99.90
22112;DHT22;11222;50.872;4.312;2023-04-16T11:23:21;10.30;99.90
22112;DHT22;11222;50.872;4.312;2023-04-16T11:25:46;10.30;99.90
22112;DHT22;11222;50.872;4.312;2023-04-16T11:28:12;10.30;99.90
22112;DHT22;11222;50.872;4.312;2023-04-16T11:30:38;10.50;99.90
22112;DHT22;11222;50.872;4.312;2023-04-16T11:35:30;10.40;99.90
22112;DHT22;11222;50.872;4.312;2023-04-16T11:37:56;10.40;99.90
22112;DHT22;11222;50.872;4.312;2023-04-16T11:40:22;10.30;99.90
22112;DHT22;11222;50.872;4.312;2023-04-16T11:42:48;10.40;99.90
22112;DHT22;11222;50.872;4.312;2023-04-16T11:45:13;10.60;99.90
22112;DHT22;11222;50.872;4.312;2023-04-16T11:47:49;10.60;99.90
22112;DHT22;11222;50.872;4.312;2023-04-16T11:50:23;10.70;99.90
22112;DHT22;11222;50.872;4.312;2023-04-16T11:52:51;10.40;99.90
22112;DHT22;11222;50.872;4.312;2023-04-16T11:55:18;10.20;99.90
22112;DHT22;11222;50.872;4.312;2023-04-16T11:57:43;10.20;99.90
22112;DHT22;11222;50.872;4.312;2023-04-16T12:00:11;10.30;99.90
22112;DHT22;11222;50.872;4.312;2023-04-16T12:02:51;10.40;99.90
22112;DHT22;11222;50.872;4.312;2023-04-16T12:05:31;10.40;99.90
22112;DHT22;11222;50.872;4.312;2023-04-16T12:08:00;10.50;99.90
22112;DHT22;11222;50.872;4.312;2023-04-16T12:10:28;10.60;99.90
22112;DHT22;11222;50.872;4.312;2023-04-16T12:13:07;10.70;99.90
22112;DHT22;11222;50.872;4.312;2023-04-16T12:15:50;10.70;99.90
22112;DHT22;11222;50.872;4.312;2023-04-16T12:18:17;10.60;99.90
22112;DHT22;11222;50.872;4.312;2023-04-16T12:20:43;10.40;99.90
22112;DHT22;11222;50.872;4.312;2023-04-16T12:23:20;10.40;99.90
22112;DHT22;11222;50.872;4.312;2023-04-16T12:25:46;10.30;99.90
22112;DHT22;11222;50.872;4.312;2023-04-16T12:28:29;10.50;99.90
22112;DHT22;11222;50.872;4.312;2023-04-16T12:30:56;10.70;99.90
22112;DHT22;11222;50.872;4.312;2023-04-16T12:33:21;10.80;99.90
22112;DHT22;11222;50.872;4.312;2023-04-16T12:35:47;11.10;99.90
22112;DHT22;11222;50.872;4.312;2023-04-16T12:38:13;11.00;99.90
22112;DHT22;11222;50.872;4.312;2023-04-16T12:40:40;10.80;99.90
22112;DHT22;11222;50.872;4.312;2023-04-16T12:43:06;11.00;99.90
22112;DHT22;11222;50.872;4.312;2023-04-16T12:45:33;11.00;99.90
22112;DHT22;11222;50.872;4.312;2023-04-16T12:47:58;11.10;99.90
22112;DHT22;11222;50.872;4.312;2023-04-16T12:50:24;11.30;99.90
22112;DHT22;11222;50.872;4.312;2023-04-16T12:52:50;11.30;99.90
22112;DHT22;11222;50.872;4.312;2023-04-16T12:55:16;11.30;99.90
22112;DHT22;11222;50.872;4.312;2023-04-16T12:57:41;11.20;99.90
22112;DHT22;11222;50.872;4.312;2023-04-16T13:00:07;11.30;99.90
22112;DHT22;11222;50.872;4.312;2023-04-16T13:02:34;11.10;99.90
22112;DHT22;11222;50.872;4.312;2023-04-16T13:05:00;11.20;99.90
22112;DHT22;11222;50.872;4.312;2023-04-16T13:07:29;11.10;99.90
22112;DHT22;11222;50.872;4.312;2023-04-16T13:09:59;11.20;99.90
22112;DHT22;11222;50.872;4.312;2023-04-16T13:12:25;11.20;99.90
22112;DHT22;11222;50.872;4.312;2023-04-16T13:14:52;11.20;99.90
22112;DHT22;11222;50.872;4.312;2023-04-16T13:17:19;11.20;99.90
22112;DHT22;11222;50.872;4.312;2023-04-16T13:19:45;11.30;99.90
22112;DHT22;11222;50.872;4.312;2023-04-16T13:22:11;11.30;99.90
22112;DHT22;11222;50.872;4.312;2023-04-16T13:24:36;11.20;99.90
22112;DHT22;11222;50.872;4.312;2023-04-16T13:27:03;11.10;99.90
22112;DHT22;11222;50.872;4.312;2023-04-16T13:29:29;11.10;99.90
22112;DHT22;11222;50.872;4.312;2023-04-16T13:31:55;10.90;99.90
22112;DHT22;11222;50.872;4.312;2023-04-16T13:34:21;10.90;99.90
22112;DHT22;11222;50.872;4.312;2023-04-16T13:36:47;10.90;99.90
22112;DHT22;11222;50.872;4.312;2023-04-16T13:39:13;11.00;99.90
22112;DHT22;11222;50.872;4.312;2023-04-16T13:41:40;10.90;99.90
22112;DHT22;11222;50.872;4.312;2023-04-16T13:44:06;10.80;99.90
22112;DHT22;11222;50.872;4.312;2023-04-16T13:46:32;10.90;99.90
22112;DHT22;11222;50.872;4.312;2023-04-16T13:48:58;11.10;99.90
22112;DHT22;11222;50.872;4.312;2023-04-16T13:51:23;11.10;99.90
22112;DHT22;11222;50.872;4.312;2023-04-16T13:53:49;11.20;99.90
22112;DHT22;11222;50.872;4.312;2023-04-16T13:56:15;11.30;99.90
22112;DHT22;11222;50.872;4.312;2023-04-16T13:58:41;11.60;99.90
22112;DHT22;11222;50.872;4.312;2023-04-16T14:01:08;11.80;99.90
22112;DHT22;11222;50.872;4.312;2023-04-16T14:03:33;12.10;99.90
22112;DHT22;11222;50.872;4.312;2023-04-16T14:06:02;12.20;99.90
22112;DHT22;11222;50.872;4.312;2023-04-16T14:08:27;12.40;99.90
22112;DHT22;11222;50.872;4.312;2023-04-16T14:10:53;12.50;99.90
22112;DHT22;11222;50.872;4.312;2023-04-16T14:13:20;12.40;99.90
22112;DHT22;11222;50.872;4.312;2023-04-16T14:15:45;12.20;99.90
22112;DHT22;11222;50.872;4.312;2023-04-16T14:18:11;12.20;99.90
22112;DHT22;11222;50.872;4.312;2023-04-16T14:20:37;12.10;99.90
22112;DHT22;11222;50.872;4.312;2023-04-16T14:23:04;12.20;99.90
22112;DHT22;11222;50.872;4.312;2023-04-16T14:25:30;12.20;99.90
22112;DHT22;11222;50.872;4.312;2023-04-16T14:27:57;12.10;99.90
22112;DHT22;11222;50.872;4.312;2023-04-16T14:30:23;11.90;99.90
22112;DHT22;11222;50.872;4.312;2023-04-16T14:32:49;12.00;99.90
22112;DHT22;11222;50.872;4.312;2023-04-16T14:35:14;12.00;99.90
22112;DHT22;11222;50.872;4.312;2023-04-16T14:37:40;12.00;99.90
22112;DHT22;11222;50.872;4.312;2023-04-16T14:40:06;12.00;99.90
22112;DHT22;11222;50.872;4.312;2023-04-16T14:42:33;12.20;99.90
22112;DHT22;11222;50.872;4.312;2023-04-16T14:45:01;12.20;99.90
22112;DHT22;11222;50.872;4.312;2023-04-16T14:47:27;12.00;99.90
22112;DHT22;11222;50.872;4.312;2023-04-16T14:49:53;12.10;99.90
22112;DHT22;11222;50.872;4.312;2023-04-16T14:52:18;12.10;99.90
22112;DHT22;11222;50.872;4.312;2023-04-16T14:54:44;12.20;99.90
22112;DHT22;11222;50.872;4.312;2023-04-16T14:57:12;12.10;99.90
22112;DHT22;11222;50.872;4.312;2023-04-16T14:59:38;12.00;99.90
22112;DHT22;11222;50.872;4.312;2023-04-16T15:02:04;12.00;99.90
22112;DHT22;11222;50.872;4.312;2023-04-16T15:04:31;12.00;99.90
22112;DHT22;11222;50.872;4.312;2023-04-16T15:06:57;12.00;99.90
22112;DHT22;11222;50.872;4.312;2023-04-16T15:09:24;11.90;99.90
22112;DHT22;11222;50.872;4.312;2023-04-16T15:11:51;11.70;99.90
22112;DHT22;11222;50.872;4.312;2023-04-16T15:14:17;11.70;99.90
22112;DHT22;11222;50.872;4.312;2023-04-16T15:16:44;11.60;99.90
22112;DHT22;11222;50.872;4.312;2023-04-16T15:19:10;11.50;99.90
22112;DHT22;11222;50.872;4.312;2023-04-16T15:21:36;11.50;99.90
22112;DHT22;11222;50.872;4.312;2023-04-16T15:24:02;11.30;99.90
22112;DHT22;11222;50.872;4.312;2023-04-16T15:26:28;11.30;99.90
22112;DHT22;11222;50.872;4.312;2023-04-16T15:28:54;11.40;99.90
22112;DHT22;11222;50.872;4.312;2023-04-16T15:31:20;11.50;99.90
22112;DHT22;11222;50.872;4.312;2023-04-16T15:33:46;11.50;99.90
22112;DHT22;11222;50.872;4.312;2023-04-16T15:36:12;11.50;99.90
22112;DHT22;11222;50.872;4.312;2023-04-16T15:38:38;11.60;99.90
22112;DHT22;11222;50.872;4.312;2023-04-16T15:41:03;11.60;99.90
22112;DHT22;11222;50.872;4.312;2023-04-16T15:43:29;11.60;99.90